Terminal Aerodrome Forecast
Issued by NWS

Home | Current Version | Previous Version | Text Only | Print | Product List | Glossary On
Versions: 1 2 3 4 5 6 7 8 9 10 11 12 13 14 15 16 17 18 19
000
FTUS43 KICT 230329 AAB
TAFRSL
TAF AMD
KRSL 230329Z 2303/2324 13011KT 4SM -DZ BR BKN005
      TEMPO 2304/2308 2SM -DZ BR BKN003
     FM230800 14009KT 2SM -DZ BR SCT001 BKN003
     FM231200 14015KT 5SM -SHRA VCTS FEW003 SCT008 OVC010CB=

USA.gov is the U.S. government's official web portal to all federal, state and local government web resources and services.